Time;durP1;ratioP1;P1;durP2;ratioP2;P2;SDS_P1;SDS_P2;PMS_P1;PMS_P2;Temp;Humidity;BMP_temperature;BMP_pressure;BME280_temperature;BME280_humidity;BME280_pressure;Samples;Min_cycle;Max_cycle;Signal;HPM_P1;HPM_P2
2022/01/03 00:01:48;;;;;;;162.95;93.55;;;;;;;;;;5051377;28;20392;-68
2022/01/03 00:04:53;;;;;;;153.45;87.97;;;;;;;;;;5051051;28;20048;-68
2022/01/03 00:07:58;;;;;;;154.90;90.43;;;;;;;;;;5036981;28;20052;-68
2022/01/03 00:11:02;;;;;;;170.70;93.25;;;;;;;;;;5031366;28;20072;-67
2022/01/03 00:14:06;;;;;;;150.85;86.80;;;;;;;;;;5031107;28;20048;-68
2022/01/03 00:17:10;;;;;;;151.00;85.45;;;;;;;;;;5031579;28;20057;-67
2022/01/03 00:20:17;;;;;;;140.43;82.60;;;;;;;;;;5018814;28;20040;-67
2022/01/03 00:23:24;;;;;;;147.23;82.28;;;;;;;;;;5031133;28;20052;-67
2022/01/03 00:26:29;;;;;;;142.90;82.75;;;;;;;;;;5031609;28;20061;-66
2022/01/03 00:29:42;;;;;;;149.63;82.68;;;;;;;;;;5030937;28;20524;-68
2022/01/03 00:32:48;;;;;;;139.60;77.50;;;;;;;;;;5031088;28;20052;-68
2022/01/03 00:35:53;;;;;;;136.32;78.22;;;;;;;;;;5031242;28;20456;-68
2022/01/03 00:38:58;;;;;;;121.47;70.82;;;;;;;;;;5030891;28;20048;-67
2022/01/03 00:42:02;;;;;;;131.98;74.28;;;;;;;;;;5031159;28;20048;-68
2022/01/03 00:45:07;;;;;;;135.55;74.25;;;;;;;;;;5007661;28;20076;-67
2022/01/03 00:48:13;;;;;;;128.60;73.30;;;;;;;;;;5031157;28;20524;-68
2022/01/03 00:51:19;;;;;;;124.78;70.15;;;;;;;;;;5018523;28;20045;-68
2022/01/03 00:54:23;;;;;;;116.97;66.97;;;;;;;;;;5030804;28;20045;-68
2022/01/03 00:57:47;;;;;;;118.25;68.55;;;;;;;;;;5030909;28;20049;-67
2022/01/03 01:00:55;;;;;;;131.35;70.93;;;;;;;;;;5007295;28;20052;-67
2022/01/03 01:04:01;;;;;;;130.25;73.07;;;;;;;;;;5030643;28;20068;-67
2022/01/03 01:07:06;;;;;;;136.32;74.40;;;;;;;;;;5030675;28;20208;-68
2022/01/03 01:10:10;;;;;;;126.13;74.20;;;;;;;;;;5030903;28;20060;-68
2022/01/03 01:13:15;;;;;;;125.13;71.53;;;;;;;;;;5018659;28;20048;-67
2022/01/03 01:16:20;;;;;;;124.75;70.72;;;;;;;;;;5018423;28;20036;-67
2022/01/03 01:19:28;;;;;;;134.38;73.65;;;;;;;;;;5018574;28;20112;-67
2022/01/03 01:22:34;;;;;;;126.30;72.38;;;;;;;;;;5022574;28;20112;-67
2022/01/03 01:28:47;;;;;;;108.53;61.75;;;;;;;;;;5021946;28;20409;-68
2022/01/03 01:31:53;;;;;;;117.22;63.33;;;;;;;;;;5022171;28;20049;-68
2022/01/03 01:35:01;;;;;;;113.22;64.50;;;;;;;;;;5010991;28;20523;-68
2022/01/03 01:38:08;;;;;;;109.35;61.45;;;;;;;;;;5022191;28;20045;-67
2022/01/03 01:41:14;;;;;;;102.38;62.55;;;;;;;;;;5022013;28;20507;-67
2022/01/03 01:44:26;;;;;;;110.60;61.03;;;;;;;;;;5011681;28;20077;-67
2022/01/03 01:47:37;;;;;;;100.68;58.95;;;;;;;;;;5021905;28;20049;-67
2022/01/03 01:50:42;;;;;;;88.03;52.38;;;;;;;;;;5021875;28;20048;-68
2022/01/03 01:53:50;;;;;;;93.70;53.05;;;;;;;;;;5021567;28;20044;-68
2022/01/03 01:57:08;;;;;;;103.25;58.28;;;;;;;;;;5021581;28;20048;-66
2022/01/03 02:00:20;;;;;;;95.00;54.53;;;;;;;;;;5010329;28;20052;-68
2022/01/03 02:03:58;;;;;;;92.57;55.50;;;;;;;;;;5021401;28;20311;-68
2022/01/03 02:07:15;;;;;;;84.22;50.50;;;;;;;;;;5021361;28;20048;-68
2022/01/03 02:10:24;;;;;;;86.90;49.97;;;;;;;;;;5010015;28;20048;-67
2022/01/03 02:13:28;;;;;;;84.85;49.17;;;;;;;;;;5021392;28;20096;-68
2022/01/03 02:16:38;;;;;;;88.40;48.08;;;;;;;;;;5021165;28;20192;-68
2022/01/03 02:20:00;;;;;;;82.78;47.97;;;;;;;;;;5021237;28;20060;-66
2022/01/03 02:23:04;;;;;;;70.70;40.10;;;;;;;;;;5033192;28;20045;-67
2022/01/03 02:26:13;;;;;;;64.45;38.78;;;;;;;;;;5021069;28;20060;-67
2022/01/03 02:29:17;;;;;;;64.80;38.20;;;;;;;;;;5021286;28;20045;-66
2022/01/03 02:32:21;;;;;;;61.55;37.30;;;;;;;;;;5032759;28;20052;-66
2022/01/03 02:35:26;;;;;;;43.63;25.23;;;;;;;;;;5021114;28;20045;-67
2022/01/03 02:38:34;;;;;;;40.65;24.23;;;;;;;;;;5033226;28;20044;-68
2022/01/03 02:41:38;;;;;;;40.35;24.50;;;;;;;;;;5009648;28;20044;-66
2022/01/03 02:44:45;;;;;;;40.50;24.90;;;;;;;;;;5032838;28;20044;-66
2022/01/03 02:47:51;;;;;;;43.95;26.17;;;;;;;;;;5033128;28;20045;-69
2022/01/03 02:50:55;;;;;;;46.88;26.63;;;;;;;;;;5020610;28;20485;-67
2022/01/03 02:54:00;;;;;;;46.75;28.73;;;;;;;;;;5020427;28;20048;-68
2022/01/03 02:57:04;;;;;;;49.92;30.67;;;;;;;;;;5020364;28;20040;-66
2022/01/03 03:00:11;;;;;;;49.40;30.20;;;;;;;;;;5032588;28;20045;-68
2022/01/03 03:03:15;;;;;;;54.13;32.35;;;;;;;;;;5032301;28;20045;-66
2022/01/03 03:06:19;;;;;;;52.60;30.70;;;;;;;;;;5032400;28;20049;-68
2022/01/03 03:09:24;;;;;;;49.95;30.08;;;;;;;;;;5032091;28;20040;-67
2022/01/03 03:12:29;;;;;;;51.42;29.70;;;;;;;;;;5020095;28;20535;-68
2022/01/03 03:15:34;;;;;;;48.35;29.55;;;;;;;;;;5020157;28;20039;-68
2022/01/03 03:18:43;;;;;;;50.63;30.48;;;;;;;;;;5032424;28;20078;-66
2022/01/03 03:21:50;;;;;;;52.03;29.05;;;;;;;;;;5020162;28;20056;-68
2022/01/03 03:25:00;;;;;;;51.35;29.33;;;;;;;;;;5020019;28;20504;-67
2022/01/03 03:28:06;;;;;;;52.03;31.48;;;;;;;;;;5019987;28;20085;-67
2022/01/03 03:31:11;;;;;;;66.30;36.22;;;;;;;;;;5019980;28;20477;-66
2022/01/03 03:34:18;;;;;;;71.15;37.55;;;;;;;;;;5019770;28;20044;-67
2022/01/03 03:37:23;;;;;;;71.68;40.40;;;;;;;;;;5019842;28;20056;-67
2022/01/03 03:40:28;;;;;;;71.78;43.30;;;;;;;;;;5019497;28;20043;-66
2022/01/03 03:43:33;;;;;;;77.15;43.72;;;;;;;;;;5030870;28;20048;-68
2022/01/03 03:46:40;;;;;;;74.35;42.97;;;;;;;;;;5019419;28;20060;-68
2022/01/03 03:49:44;;;;;;;72.18;40.92;;;;;;;;;;5019629;28;20037;-67
2022/01/03 03:52:49;;;;;;;74.72;43.05;;;;;;;;;;5019272;28;20065;-68
2022/01/03 03:55:55;;;;;;;72.60;41.63;;;;;;;;;;5019537;28;20060;-68
2022/01/03 03:59:02;;;;;;;68.70;42.58;;;;;;;;;;5019243;28;20049;-66
2022/01/03 04:02:07;;;;;;;73.88;41.97;;;;;;;;;;5019480;28;20056;-66
2022/01/03 04:05:14;;;;;;;69.85;41.15;;;;;;;;;;5008269;28;20421;-68
2022/01/03 04:08:19;;;;;;;71.25;41.25;;;;;;;;;;5043749;28;20044;-68
2022/01/03 04:11:23;;;;;;;74.57;42.13;;;;;;;;;;5051198;28;20044;-68
2022/01/03 04:14:29;;;;;;;65.80;38.35;;;;;;;;;;5050641;28;20047;-68
2022/01/03 04:17:33;;;;;;;63.90;38.25;;;;;;;;;;5050687;28;20048;-67
2022/01/03 04:20:38;;;;;;;63.92;37.97;;;;;;;;;;5050436;28;20048;-67
2022/01/03 04:23:42;;;;;;;66.70;39.53;;;;;;;;;;5050472;28;20420;-68
2022/01/03 04:26:49;;;;;;;66.15;38.75;;;;;;;;;;5050299;28;20044;-67
2022/01/03 04:29:54;;;;;;;62.22;36.80;;;;;;;;;;5050094;28;20507;-68
2022/01/03 04:32:58;;;;;;;65.30;38.50;;;;;;;;;;5050286;28;20040;-66
2022/01/03 04:36:03;;;;;;;60.78;36.38;;;;;;;;;;5050735;28;20055;-67
2022/01/03 04:39:08;;;;;;;60.30;36.55;;;;;;;;;;5050244;28;20047;-68
2022/01/03 04:42:12;;;;;;;61.83;37.13;;;;;;;;;;5050871;28;20499;-68
2022/01/03 04:45:17;;;;;;;64.10;36.53;;;;;;;;;;5049906;28;20048;-68
2022/01/03 04:48:21;;;;;;;65.72;38.17;;;;;;;;;;5050757;28;20052;-68
2022/01/03 04:51:25;;;;;;;59.97;36.80;;;;;;;;;;5027359;28;20068;-68
2022/01/03 04:54:30;;;;;;;67.85;41.13;;;;;;;;;;5051029;28;20532;-67
2022/01/03 04:57:34;;;;;;;66.57;39.85;;;;;;;;;;5053935;28;20409;-67
2022/01/03 05:00:40;;;;;;;69.32;40.60;;;;;;;;;;5054109;28;20102;-67
2022/01/03 05:03:45;;;;;;;63.17;37.60;;;;;;;;;;5053784;28;20048;-69
2022/01/03 05:06:49;;;;;;;68.03;39.83;;;;;;;;;;5049549;28;20056;-67
2022/01/03 05:09:53;;;;;;;63.92;37.42;;;;;;;;;;5011196;28;20052;-67
2022/01/03 05:12:57;;;;;;;62.58;38.58;;;;;;;;;;5022458;28;20064;-68
2022/01/03 05:16:03;;;;;;;60.35;36.70;;;;;;;;;;5022836;28;20052;-68
2022/01/03 05:19:08;;;;;;;64.93;36.28;;;;;;;;;;5022436;28;20043;-66
2022/01/03 05:22:15;;;;;;;63.45;38.05;;;;;;;;;;5011103;28;20041;-67
2022/01/03 05:25:20;;;;;;;66.43;37.85;;;;;;;;;;5022042;28;20055;-68
2022/01/03 05:28:25;;;;;;;73.15;39.40;;;;;;;;;;5022067;28;20104;-67
2022/01/03 05:31:30;;;;;;;63.75;37.45;;;;;;;;;;5022107;28;20060;-68
2022/01/03 05:34:34;;;;;;;65.10;38.28;;;;;;;;;;5022237;28;20507;-68
2022/01/03 05:37:39;;;;;;;58.05;35.58;;;;;;;;;;5021905;28;20052;-67
2022/01/03 05:40:43;;;;;;;71.25;37.85;;;;;;;;;;5021990;28;20045;-67
2022/01/03 05:43:49;;;;;;;65.03;38.20;;;;;;;;;;5021659;28;20041;-66
2022/01/03 05:46:53;;;;;;;63.35;38.03;;;;;;;;;;5021993;28;20064;-66
2022/01/03 05:49:58;;;;;;;66.80;37.95;;;;;;;;;;5021915;28;20524;-67
2022/01/03 05:53:03;;;;;;;63.88;35.00;;;;;;;;;;5021716;28;20044;-68
2022/01/03 05:56:08;;;;;;;56.75;35.50;;;;;;;;;;5033968;28;20049;-67
2022/01/03 05:59:12;;;;;;;59.90;34.08;;;;;;;;;;5021626;28;20053;-67
2022/01/03 06:02:18;;;;;;;58.67;35.40;;;;;;;;;;5021395;28;20045;-67
2022/01/03 06:08:42;;;;;;;56.67;34.42;;;;;;;;;;5033595;28;20183;-67
2022/01/03 06:11:46;;;;;;;55.45;33.70;;;;;;;;;;5021442;28;20048;-67
2022/01/03 06:14:51;;;;;;;57.85;34.38;;;;;;;;;;5021452;28;20045;-67
2022/01/03 06:17:55;;;;;;;60.97;34.60;;;;;;;;;;5021521;28;20044;-66
2022/01/03 06:21:01;;;;;;;60.15;35.83;;;;;;;;;;5021030;28;20036;-68
2022/01/03 06:24:12;;;;;;;62.33;34.90;;;;;;;;;;5020866;28;20064;-67
2022/01/03 06:27:18;;;;;;;53.90;33.38;;;;;;;;;;5021147;28;20520;-68
2022/01/03 06:30:23;;;;;;;57.83;32.92;;;;;;;;;;5020840;28;20045;-67
2022/01/03 06:33:29;;;;;;;59.20;33.97;;;;;;;;;;5020910;28;20489;-68
2022/01/03 06:36:33;;;;;;;56.22;33.05;;;;;;;;;;5033370;28;20052;-67
2022/01/03 06:39:41;;;;;;;54.60;32.25;;;;;;;;;;5021041;28;20048;-68
2022/01/03 06:42:47;;;;;;;63.22;33.45;;;;;;;;;;5009704;28;20040;-69
2022/01/03 06:45:53;;;;;;;66.68;33.83;;;;;;;;;;5020956;28;20061;-69
2022/01/03 06:48:58;;;;;;;58.70;33.78;;;;;;;;;;5010072;28;20044;-69
2022/01/03 06:52:05;;;;;;;47.85;28.35;;;;;;;;;;5020695;28;20052;-67
2022/01/03 06:55:10;;;;;;;54.58;30.20;;;;;;;;;;5020553;28;20524;-68
2022/01/03 06:58:16;;;;;;;55.47;31.10;;;;;;;;;;5022489;28;20048;-70
2022/01/03 07:01:21;;;;;;;49.53;29.33;;;;;;;;;;5009781;28;20049;-68
2022/01/03 07:04:26;;;;;;;55.83;30.40;;;;;;;;;;5020307;28;20056;-70
2022/01/03 07:07:30;;;;;;;56.00;30.67;;;;;;;;;;5020373;28;20064;-69
2022/01/03 07:10:34;;;;;;;50.08;30.02;;;;;;;;;;5032443;28;20045;-69
2022/01/03 07:13:51;;;;;;;55.00;28.38;;;;;;;;;;5033272;28;20048;-69
2022/01/03 07:20:23;;;;;;;45.63;27.23;;;;;;;;;;5020420;28;20049;-67
2022/01/03 07:23:27;;;;;;;51.42;27.70;;;;;;;;;;5032612;28;20412;-70
2022/01/03 07:26:32;;;;;;;53.00;28.55;;;;;;;;;;5033159;28;20093;-69
2022/01/03 07:29:37;;;;;;;50.30;28.45;;;;;;;;;;5032155;28;20061;-69
2022/01/03 07:32:42;;;;;;;46.25;27.98;;;;;;;;;;5033127;28;20429;-72
2022/01/03 07:35:47;;;;;;;50.53;28.13;;;;;;;;;;5032604;28;20085;-70
2022/01/03 07:38:51;;;;;;;35.63;20.10;;;;;;;;;;5032130;28;20308;-69
2022/01/03 07:41:56;;;;;;;35.70;21.17;;;;;;;;;;5009097;28;20048;-70
2022/01/03 07:45:00;;;;;;;34.88;21.35;;;;;;;;;;5032485;28;20060;-69
2022/01/03 07:48:04;;;;;;;37.20;21.67;;;;;;;;;;5032100;28;20037;-69
2022/01/03 07:51:08;;;;;;;35.42;20.63;;;;;;;;;;5032649;28;20044;-70
2022/01/03 07:54:13;;;;;;;32.65;19.42;;;;;;;;;;5032580;28;20052;-69
2022/01/03 07:57:18;;;;;;;46.58;20.92;;;;;;;;;;5031943;28;20044;-68
2022/01/03 08:00:22;;;;;;;29.23;18.42;;;;;;;;;;5032132;28;20044;-69
2022/01/03 08:03:26;;;;;;;30.42;19.00;;;;;;;;;;5020990;28;20131;-68
2022/01/03 08:06:31;;;;;;;37.15;19.85;;;;;;;;;;5032532;28;20053;-69
2022/01/03 08:09:35;;;;;;;42.05;19.45;;;;;;;;;;5032509;28;20056;-69
2022/01/03 08:12:41;;;;;;;34.00;20.23;;;;;;;;;;5019937;28;20492;-68
2022/01/03 08:15:45;;;;;;;41.80;19.60;;;;;;;;;;5031097;28;20065;-69
2022/01/03 08:18:49;;;;;;;166.00;70.97;;;;;;;;;;5031643;28;20056;-71
2022/01/03 08:21:54;;;;;;;64.18;32.60;;;;;;;;;;5030989;28;20107;-69
2022/01/03 08:24:58;;;;;;;37.42;22.52;;;;;;;;;;5031275;28;20052;-71
2022/01/03 08:28:03;;;;;;;44.40;22.15;;;;;;;;;;5019517;28;20040;-69
2022/01/03 08:31:08;;;;;;;45.63;23.20;;;;;;;;;;5030866;28;20060;-68
2022/01/03 08:34:12;;;;;;;35.55;19.70;;;;;;;;;;5031122;28;20045;-72
2022/01/03 08:37:16;;;;;;;28.85;17.60;;;;;;;;;;5030734;28;20045;-68
2022/01/03 08:40:21;;;;;;;32.03;18.05;;;;;;;;;;5030407;28;20060;-70
2022/01/03 08:43:25;;;;;;;36.72;18.55;;;;;;;;;;5031102;28;20040;-70
2022/01/03 08:46:30;;;;;;;35.67;17.75;;;;;;;;;;5031212;28;20061;-68
2022/01/03 08:49:34;;;;;;;28.85;16.88;;;;;;;;;;5030916;28;20044;-69
2022/01/03 08:52:41;;;;;;;25.15;16.33;;;;;;;;;;5030693;28;20044;-71
2022/01/03 08:55:45;;;;;;;26.30;14.98;;;;;;;;;;5018457;28;20052;-70
2022/01/03 08:58:50;;;;;;;24.50;15.73;;;;;;;;;;5030547;28;20049;-71
2022/01/03 09:01:54;;;;;;;23.80;16.30;;;;;;;;;;5030673;28;20040;-68
2022/01/03 09:04:59;;;;;;;26.13;15.35;;;;;;;;;;5030988;28;20060;-69
2022/01/03 09:08:03;;;;;;;23.45;15.52;;;;;;;;;;5039069;28;20059;-68
2022/01/03 09:11:09;;;;;;;30.17;16.88;;;;;;;;;;5050367;28;20047;-69
2022/01/03 09:14:14;;;;;;;29.65;17.40;;;;;;;;;;5051500;28;20040;-70
2022/01/03 09:17:18;;;;;;;41.45;22.33;;;;;;;;;;5051113;28;20047;-68
2022/01/03 09:20:23;;;;;;;29.10;18.52;;;;;;;;;;5050612;28;20056;-69
2022/01/03 09:23:32;;;;;;;31.77;19.23;;;;;;;;;;5050710;28;20506;-69
2022/01/03 09:29:59;;;;;;;22.63;14.63;;;;;;;;;;5050135;28;20052;-69
2022/01/03 09:33:03;;;;;;;24.95;14.85;;;;;;;;;;5050526;28;20048;-69
2022/01/03 09:36:07;;;;;;;20.27;13.98;;;;;;;;;;5050545;28;20048;-69
2022/01/03 09:39:12;;;;;;;26.33;16.02;;;;;;;;;;5049518;28;20048;-70
2022/01/03 09:42:20;;;;;;;26.25;16.80;;;;;;;;;;5052483;28;20535;-67
2022/01/03 09:45:30;;;;;;;25.90;18.02;;;;;;;;;;5053637;28;20052;-68
2022/01/03 09:48:36;;;;;;;39.08;22.85;;;;;;;;;;5054015;28;20051;-70
2022/01/03 09:51:45;;;;;;;51.25;24.75;;;;;;;;;;5054213;28;20052;-70
2022/01/03 09:54:51;;;;;;;40.13;23.73;;;;;;;;;;5051782;28;20047;-69
2022/01/03 09:57:56;;;;;;;38.80;21.33;;;;;;;;;;5053853;28;20282;-68
2022/01/03 10:01:01;;;;;;;41.88;22.08;;;;;;;;;;5052312;28;20204;-68
2022/01/03 10:04:05;;;;;;;41.38;22.70;;;;;;;;;;5053015;28;20430;-68
2022/01/03 10:07:14;;;;;;;44.92;23.48;;;;;;;;;;5047035;28;20139;-70
2022/01/03 10:10:18;;;;;;;36.13;22.50;;;;;;;;;;5034175;28;20045;-69
2022/01/03 10:13:23;;;;;;;38.33;22.88;;;;;;;;;;5034260;28;20052;-69
2022/01/03 10:16:29;;;;;;;49.20;22.02;;;;;;;;;;5034235;28;20500;-69
2022/01/03 10:19:49;;;;;;;34.83;19.50;;;;;;;;;;5033419;28;20078;-71
2022/01/03 10:23:07;;;;;;;38.17;20.45;;;;;;;;;;5034247;28;20052;-68
2022/01/03 10:26:20;;;;;;;38.15;18.92;;;;;;;;;;5021594;28;20151;-69
2022/01/03 10:29:26;;;;;;;31.20;18.27;;;;;;;;;;5033459;28;20048;-70
2022/01/03 10:32:31;;;;;;;25.88;17.63;;;;;;;;;;5033168;28;20053;-69
2022/01/03 10:35:37;;;;;;;30.00;17.08;;;;;;;;;;5032767;28;20041;-69
2022/01/03 10:38:44;;;;;;;30.55;19.20;;;;;;;;;;5033160;28;20045;-69
2022/01/03 10:41:50;;;;;;;29.70;18.73;;;;;;;;;;5032594;28;20513;-70
2022/01/03 10:44:54;;;;;;;30.55;17.60;;;;;;;;;;5032641;28;20504;-71
2022/01/03 10:47:59;;;;;;;25.85;15.38;;;;;;;;;;5020863;28;20041;-70
2022/01/03 10:51:03;;;;;;;28.98;18.30;;;;;;;;;;5020761;28;20048;-70
2022/01/03 10:54:09;;;;;;;28.88;16.65;;;;;;;;;;5031904;28;20064;-70
2022/01/03 10:57:14;;;;;;;26.05;16.52;;;;;;;;;;5032552;28;20053;-70
2022/01/03 11:00:28;;;;;;;25.15;16.55;;;;;;;;;;5032682;28;20385;-70
2022/01/03 11:03:40;;;;;;;30.73;17.20;;;;;;;;;;5032551;28;20056;-71
2022/01/03 11:13:26;;;;;;;36.13;20.58;;;;;;;;;;5032471;28;20053;-68
2022/01/03 11:16:34;;;;;;;35.78;21.90;;;;;;;;;;5032252;28;20044;-69
2022/01/03 11:19:39;;;;;;;34.88;21.02;;;;;;;;;;5032024;28;20040;-69
2022/01/03 11:22:45;;;;;;;35.88;20.42;;;;;;;;;;5032085;28;20056;-70
2022/01/03 11:25:52;;;;;;;32.88;20.05;;;;;;;;;;5032034;28;20052;-72
2022/01/03 11:28:56;;;;;;;32.58;20.02;;;;;;;;;;5032560;28;20036;-70
2022/01/03 11:32:00;;;;;;;30.92;20.02;;;;;;;;;;5032094;28;20052;-71
2022/01/03 11:35:05;;;;;;;28.17;17.45;;;;;;;;;;5031818;28;20504;-70
2022/01/03 11:38:11;;;;;;;33.42;20.52;;;;;;;;;;5031502;28;20651;-70
2022/01/03 11:41:16;;;;;;;28.80;18.38;;;;;;;;;;5032105;28;20040;-69
2022/01/03 11:44:20;;;;;;;32.58;15.05;;;;;;;;;;5031937;28;20052;-69
2022/01/03 11:47:27;;;;;;;21.20;13.95;;;;;;;;;;5032058;28;20504;-69
2022/01/03 11:50:31;;;;;;;20.27;13.20;;;;;;;;;;5019927;28;20421;-71
2022/01/03 11:53:36;;;;;;;17.08;11.40;;;;;;;;;;5031639;28;20053;-69
2022/01/03 11:56:46;;;;;;;18.65;12.65;;;;;;;;;;5031658;28;20040;-69
2022/01/03 12:03:39;;;;;;;16.55;7.28;;;;;;;;;;5031343;28;20113;-69
2022/01/03 12:06:45;;;;;;;13.90;6.70;;;;;;;;;;5031273;28;20057;-68
2022/01/03 12:09:53;;;;;;;15.27;6.97;;;;;;;;;;5031401;28;20646;-69
2022/01/03 12:12:58;;;;;;;12.18;6.80;;;;;;;;;;5019352;28;20048;-69
2022/01/03 12:16:04;;;;;;;10.90;6.95;;;;;;;;;;5031220;28;20064;-69
2022/01/03 12:19:10;;;;;;;11.18;7.32;;;;;;;;;;5031621;28;20052;-68
2022/01/03 12:22:15;;;;;;;10.40;7.90;;;;;;;;;;5030523;28;20046;-68
2022/01/03 12:25:25;;;;;;;11.30;7.07;;;;;;;;;;5031638;28;20052;-69
2022/01/03 12:28:49;;;;;;;11.15;7.65;;;;;;;;;;5031291;28;20216;-67
2022/01/03 12:32:03;;;;;;;15.23;8.57;;;;;;;;;;5031266;28;20041;-68
2022/01/03 12:38:14;;;;;;;9.90;7.00;;;;;;;;;;5031261;28;20048;-68
2022/01/03 12:41:37;;;;;;;11.13;6.95;;;;;;;;;;5031618;28;20037;-68
2022/01/03 12:44:46;;;;;;;13.40;6.90;;;;;;;;;;5030796;28;20052;-70
2022/01/03 12:47:50;;;;;;;16.50;7.82;;;;;;;;;;5031275;28;20504;-67
2022/01/03 12:50:55;;;;;;;15.20;9.25;;;;;;;;;;5031248;28;20044;-67
2022/01/03 12:53:59;;;;;;;13.52;8.10;;;;;;;;;;5031072;28;20044;-69
2022/01/03 12:57:14;;;;;;;15.38;8.70;;;;;;;;;;5018587;28;20499;-68
2022/01/03 13:00:36;;;;;;;12.32;7.22;;;;;;;;;;5018907;28;20519;-68
2022/01/03 13:03:43;;;;;;;13.45;6.53;;;;;;;;;;5031428;28;20050;-68
2022/01/03 13:06:48;;;;;;;13.38;7.20;;;;;;;;;;5031362;28;20052;-69
2022/01/03 13:09:52;;;;;;;12.98;7.32;;;;;;;;;;5030462;28;20044;-68
2022/01/03 13:12:58;;;;;;;13.50;7.50;;;;;;;;;;5030565;28;20052;-69
2022/01/03 13:16:21;;;;;;;18.98;8.30;;;;;;;;;;5032861;28;20041;-69
2022/01/03 13:19:27;;;;;;;14.55;7.15;;;;;;;;;;5034545;28;20040;-69
2022/01/03 13:22:34;;;;;;;9.77;6.93;;;;;;;;;;5034714;28;20052;-69
2022/01/03 13:25:39;;;;;;;12.18;6.95;;;;;;;;;;5034265;28;20406;-68
2022/01/03 13:28:51;;;;;;;9.10;6.28;;;;;;;;;;5022214;28;20312;-68
2022/01/03 13:31:56;;;;;;;11.40;6.32;;;;;;;;;;5034164;28;20041;-69
2022/01/03 13:35:02;;;;;;;11.65;6.18;;;;;;;;;;5034116;28;20056;-69
2022/01/03 13:38:17;;;;;;;7.85;5.10;;;;;;;;;;5034405;28;20053;-67
2022/01/03 13:41:22;;;;;;;10.00;5.78;;;;;;;;;;5034567;28;20386;-67
2022/01/03 13:51:23;;;;;;;11.40;5.72;;;;;;;;;;5034209;28;20042;-68
2022/01/03 13:54:34;;;;;;;15.32;5.97;;;;;;;;;;5033812;28;20045;-68
2022/01/03 13:57:38;;;;;;;;;;;;;;;;;;5034689;28;20045;-70
2022/01/03 14:00:43;;;;;;;15.48;6.30;;;;;;;;;;5033867;28;19920;-68
2022/01/03 14:03:48;;;;;;;64.88;29.05;;;;;;;;;;5034265;28;20053;-68
2022/01/03 14:07:12;;;;;;;19.90;11.07;;;;;;;;;;5033359;28;20058;-67
2022/01/03 14:10:16;;;;;;;13.75;7.40;;;;;;;;;;5033948;28;20040;-73
2022/01/03 14:13:21;;;;;;;22.45;8.13;;;;;;;;;;5034126;28;20045;-68
2022/01/03 14:16:27;;;;;;;18.70;7.68;;;;;;;;;;5033569;28;20394;-71
2022/01/03 14:19:33;;;;;;;14.38;7.28;;;;;;;;;;5033466;28;20052;-70
2022/01/03 14:22:39;;;;;;;13.70;7.18;;;;;;;;;;5033851;28;20044;-71
2022/01/03 14:25:43;;;;;;;16.67;8.18;;;;;;;;;;5033849;28;20049;-70
2022/01/03 14:28:48;;;;;;;17.25;8.73;;;;;;;;;;5020405;28;20398;-70
2022/01/03 14:31:54;;;;;;;18.48;9.75;;;;;;;;;;5033113;28;20068;-71
2022/01/03 14:34:58;;;;;;;24.77;9.82;;;;;;;;;;5009524;28;20413;-71
2022/01/03 14:38:04;;;;;;;20.65;8.52;;;;;;;;;;5033370;28;20052;-71
2022/01/03 14:41:25;;;;;;;15.23;8.90;;;;;;;;;;5033659;28;20072;-70
2022/01/03 14:44:30;;;;;;;20.80;11.10;;;;;;;;;;5033019;28;20041;-71
2022/01/03 14:47:34;;;;;;;26.13;10.90;;;;;;;;;;5033837;28;20045;-71
2022/01/03 14:50:39;;;;;;;27.77;10.85;;;;;;;;;;5033264;28;20064;-71
2022/01/03 14:53:43;;;;;;;22.63;11.27;;;;;;;;;;5033283;28;20048;-72
2022/01/03 14:56:48;;;;;;;25.85;10.25;;;;;;;;;;5033048;28;20048;-71
2022/01/03 14:59:53;;;;;;;26.05;12.70;;;;;;;;;;5032587;28;20050;-73
2022/01/03 15:02:57;;;;;;;26.52;11.85;;;;;;;;;;5020729;28;20048;-72
2022/01/03 15:06:01;;;;;;;23.52;9.70;;;;;;;;;;5032705;28;20052;-72
2022/01/03 15:09:06;;;;;;;15.25;8.23;;;;;;;;;;5032532;28;20049;-72
2022/01/03 15:12:10;;;;;;;18.40;9.00;;;;;;;;;;5031702;28;20038;-73
2022/01/03 15:15:15;;;;;;;13.85;6.95;;;;;;;;;;5020509;28;20040;-72
2022/01/03 15:18:20;;;;;;;13.73;8.30;;;;;;;;;;5032315;28;20049;-73
2022/01/03 15:21:24;;;;;;;25.75;8.38;;;;;;;;;;5032318;28;20045;-71
2022/01/03 15:24:28;;;;;;;15.43;8.05;;;;;;;;;;5032120;28;20056;-73
2022/01/03 15:27:32;;;;;;;16.13;8.73;;;;;;;;;;5020114;28;20100;-75
2022/01/03 15:30:37;;;;;;;14.48;7.60;;;;;;;;;;5031858;28;20532;-72
2022/01/03 15:33:41;;;;;;;17.08;8.57;;;;;;;;;;5032066;28;20052;-73
2022/01/03 15:36:45;;;;;;;19.60;10.75;;;;;;;;;;5032030;28;20040;-73
2022/01/03 15:39:50;;;;;;;18.63;9.80;;;;;;;;;;5030846;28;20408;-73
2022/01/03 15:42:58;;;;;;;18.55;9.18;;;;;;;;;;5031524;28;20045;-73
2022/01/03 15:46:03;;;;;;;13.82;8.27;;;;;;;;;;5031169;28;20064;-73
2022/01/03 15:49:09;;;;;;;17.25;8.85;;;;;;;;;;5031516;28;20048;-74
2022/01/03 15:52:13;;;;;;;16.40;9.27;;;;;;;;;;5031489;28;20401;-73
2022/01/03 15:55:17;;;;;;;17.40;8.20;;;;;;;;;;5031830;28;20040;-72
2022/01/03 15:58:21;;;;;;;13.50;8.60;;;;;;;;;;5031487;28;20048;-71
2022/01/03 16:01:26;;;;;;;22.73;11.40;;;;;;;;;;5031454;28;20041;-72
2022/01/03 16:04:31;;;;;;;22.75;11.40;;;;;;;;;;5031156;28;20044;-71
2022/01/03 16:07:36;;;;;;;20.33;10.38;;;;;;;;;;5030764;28;20068;-70
2022/01/03 16:10:40;;;;;;;17.15;9.85;;;;;;;;;;5031390;28;20512;-70
2022/01/03 16:13:44;;;;;;;17.20;11.27;;;;;;;;;;5031192;28;20048;-70
2022/01/03 16:16:49;;;;;;;23.45;13.18;;;;;;;;;;5030866;28;20532;-71
2022/01/03 16:19:53;;;;;;;31.77;13.02;;;;;;;;;;5031106;28;20532;-69
2022/01/03 16:22:58;;;;;;;20.80;11.68;;;;;;;;;;5031206;28;20047;-70
2022/01/03 16:26:02;;;;;;;25.48;12.48;;;;;;;;;;5030888;28;20076;-72
2022/01/03 16:29:31;;;;;;;27.30;12.40;;;;;;;;;;5030568;28;20036;-72
2022/01/03 16:32:58;;;;;;;30.83;14.23;;;;;;;;;;5030688;28;20060;-71
2022/01/03 16:36:28;;;;;;;26.67;14.68;;;;;;;;;;5031273;28;20032;-71
2022/01/03 16:39:58;;;;;;;25.55;14.38;;;;;;;;;;5031325;28;20196;-72
2022/01/03 16:43:29;;;;;;;23.60;13.10;;;;;;;;;;5031088;28;20044;-72
2022/01/03 16:46:59;;;;;;;28.92;12.90;;;;;;;;;;5030608;28;20053;-71
2022/01/03 16:50:29;;;;;;;24.17;11.45;;;;;;;;;;5032032;28;20064;-72
2022/01/03 16:53:59;;;;;;;20.55;10.98;;;;;;;;;;5023045;28;20045;-73
2022/01/03 16:57:28;;;;;;;25.45;10.75;;;;;;;;;;5034917;28;20131;-72
2022/01/03 17:01:12;;;;;;;22.25;10.55;;;;;;;;;;5035063;28;20300;-73
2022/01/03 17:04:49;;;;;;;22.15;11.07;;;;;;;;;;5034814;28;20504;-72
2022/01/03 17:08:21;;;;;;;28.38;12.18;;;;;;;;;;5046271;28;20064;-72
2022/01/03 17:12:19;;;;;;;21.35;11.27;;;;;;;;;;5034632;28;20072;-74
2022/01/03 17:15:52;;;;;;;19.48;12.05;;;;;;;;;;5035007;28;20053;-73
2022/01/03 17:19:18;;;;;;;23.08;13.05;;;;;;;;;;5034757;28;20048;-71
2022/01/03 17:22:52;;;;;;;33.20;17.88;;;;;;;;;;5034560;28;20044;-72
2022/01/03 17:26:19;;;;;;;37.75;21.17;;;;;;;;;;5034064;28;20048;-71
2022/01/03 17:29:48;;;;;;;37.78;22.13;;;;;;;;;;5034396;28;20041;-72
2022/01/03 17:33:10;;;;;;;37.25;22.15;;;;;;;;;;5034190;28;20045;-69
2022/01/03 17:37:09;;;;;;;39.20;22.45;;;;;;;;;;5060119;22;20414;-72
2022/01/03 17:40:33;;;;;;;30.45;20.23;;;;;;;;;;5087435;28;20051;-73
2022/01/03 17:43:38;;;;;;;26.88;17.20;;;;;;;;;;5094367;28;20051;-73
2022/01/03 17:46:42;;;;;;;33.28;16.85;;;;;;;;;;5093922;28;20075;-73
2022/01/03 17:50:13;;;;;;;28.10;15.27;;;;;;;;;;5093335;28;20051;-75
2022/01/03 17:53:37;;;;;;;32.33;16.65;;;;;;;;;;5081826;28;20122;-72
2022/01/03 17:57:00;;;;;;;32.33;17.58;;;;;;;;;;5093865;28;20043;-73
2022/01/03 18:00:24;;;;;;;46.63;21.17;;;;;;;;;;5094263;28;20063;-75
2022/01/03 18:03:47;;;;;;;46.72;25.38;;;;;;;;;;5080670;28;20043;-76
2022/01/03 18:07:14;;;;;;;42.83;24.83;;;;;;;;;;5080892;28;20059;-69
2022/01/03 18:10:19;;;;;;;55.20;28.67;;;;;;;;;;5094102;28;20051;-76
2022/01/03 18:13:24;;;;;;;48.75;25.83;;;;;;;;;;5094521;28;20059;-76
2022/01/03 18:16:34;;;;;;;50.78;22.80;;;;;;;;;;5081999;28;20390;-75
2022/01/03 18:19:38;;;;;;;41.95;22.23;;;;;;;;;;5093652;28;20112;-73
2022/01/03 18:22:43;;;;;;;49.75;26.30;;;;;;;;;;5093146;28;20506;-72
2022/01/03 18:25:47;;;;;;;41.20;22.58;;;;;;;;;;5092869;28;20134;-72
2022/01/03 18:28:51;;;;;;;37.65;21.25;;;;;;;;;;5093402;28;20055;-72
2022/01/03 18:31:57;;;;;;;47.08;24.48;;;;;;;;;;5092911;28;20497;-72
2022/01/03 18:35:01;;;;;;;39.28;23.95;;;;;;;;;;5093319;28;20414;-72
2022/01/03 18:38:05;;;;;;;43.25;24.75;;;;;;;;;;5097721;28;20513;-72
2022/01/03 18:41:10;;;;;;;42.90;24.17;;;;;;;;;;5113675;28;20394;-72
2022/01/03 18:44:14;;;;;;;45.30;24.05;;;;;;;;;;5100826;28;20293;-71
2022/01/03 18:47:21;;;;;;;50.00;36.00;;;;;;;;;;5112797;28;20055;-71
2022/01/03 18:50:26;;;;;;;60.35;35.55;;;;;;;;;;5112733;28;20046;-71